Terminal Aerodrome Forecast
Issued by NWS Paducah, KY

Home | Current Version | Previous Version | Text Only | Print | Product List | Glossary On
Versions: 1 2 3 4 5 6 7 8 9 10 11 12 13 14 15 16 17 18 19
000
FTUS43 KPAH 191739
TAFPAH
TAF
KPAH 191739Z 1918/2018 13009KT 6SM BR VCSH BKN005 OVC012
     FM192000 13004KT 4SM -SHRA BR OVC007
     FM200100 18004KT 3SM -SHRA BR OVC009
     FM200800 21005KT 2SM -SHRA BR OVC012
     FM201300 21005KT 2SM BR VCSH OVC005
     FM201600 19006KT P6SM BKN010=

USA.gov is the U.S. government's official web portal to all federal, state and local government web resources and services.